createdAt,value
2022-09-21T00:00:58.529Z,1.70
2022-09-21T00:01:58.534Z,2.00
2022-09-21T00:02:58.485Z,1.90
2022-09-21T00:03:58.466Z,1.90
2022-09-21T00:04:58.445Z,2.00
2022-09-21T00:05:58.428Z,2.00
2022-09-21T00:06:58.416Z,2.30
2022-09-21T00:07:58.422Z,2.60
2022-09-21T00:08:58.415Z,2.40
2022-09-21T00:09:58.391Z,2.30
2022-09-21T00:10:58.378Z,2.20
2022-09-21T00:11:58.500Z,2.10
2022-09-21T00:12:58.365Z,2.20
2022-09-21T00:13:58.368Z,2.10
2022-09-21T00:14:58.355Z,1.90
2022-09-21T00:15:58.344Z,2.40
2022-09-21T00:16:58.402Z,2.20
2022-09-21T00:17:58.313Z,1.90
2022-09-21T00:18:58.315Z,2.10
2022-09-21T00:19:58.306Z,1.90
2022-09-21T00:20:58.276Z,1.90
2022-09-21T00:21:58.279Z,2.40
2022-09-21T00:22:58.260Z,2.40
2022-09-21T00:23:58.260Z,2.30
2022-09-21T00:24:58.237Z,2.20
2022-09-21T00:25:58.224Z,2.00
2022-09-21T00:26:58.214Z,2.20
2022-09-21T00:27:58.207Z,2.10
2022-09-21T00:28:58.213Z,2.30
2022-09-21T00:29:58.194Z,2.40
2022-09-21T00:30:58.175Z,1.80
2022-09-21T00:31:58.275Z,2.10
2022-09-21T00:32:58.154Z,2.30
2022-09-21T00:33:58.166Z,2.00
2022-09-21T00:34:58.138Z,1.70
2022-09-21T00:35:58.128Z,2.20
2022-09-21T00:36:58.116Z,1.90
2022-09-21T00:37:58.109Z,1.50
2022-09-21T00:38:58.112Z,2.00
2022-09-21T00:39:58.121Z,1.80
2022-09-21T00:40:58.074Z,1.90
2022-09-21T00:41:58.082Z,1.60
2022-09-21T00:42:58.059Z,1.80
2022-09-21T00:43:58.062Z,2.00
2022-09-21T00:44:58.035Z,2.30
2022-09-21T00:45:58.113Z,1.80
2022-09-21T00:46:58.037Z,2.10
2022-09-21T00:47:58.037Z,1.60
2022-09-21T00:48:58.013Z,2.00
2022-09-21T00:49:57.991Z,1.90
2022-09-21T00:50:57.983Z,1.50
2022-09-21T00:51:57.982Z,2.10
2022-09-21T00:52:57.955Z,1.60
2022-09-21T00:53:57.992Z,2.50
2022-09-21T00:54:57.938Z,2.00
2022-09-21T00:55:57.927Z,2.30
2022-09-21T00:56:57.919Z,2.00
2022-09-21T00:57:57.918Z,1.90
2022-09-21T00:58:57.917Z,1.90
2022-09-21T00:59:57.902Z,2.00
2022-09-21T01:00:57.958Z,2.20
2022-09-21T01:01:57.899Z,2.20
2022-09-21T01:02:57.856Z,1.70
2022-09-21T01:03:57.877Z,2.10
2022-09-21T01:04:57.854Z,1.90
2022-09-21T01:05:57.841Z,1.80
2022-09-21T01:06:57.832Z,2.00
2022-09-21T01:07:57.820Z,2.30
2022-09-21T01:08:57.813Z,1.70
2022-09-21T01:09:57.814Z,1.90
2022-09-21T01:10:57.783Z,1.80
2022-09-21T01:11:57.780Z,2.30
2022-09-21T01:12:57.771Z,2.10
2022-09-21T01:13:57.749Z,2.20
2022-09-21T01:14:57.764Z,2.20
2022-09-21T01:15:57.814Z,1.90
2022-09-21T01:16:57.731Z,1.90
2022-09-21T01:17:57.720Z,1.80
2022-09-21T01:18:57.707Z,1.90
2022-09-21T01:19:57.728Z,1.80
2022-09-21T01:20:57.681Z,1.90
2022-09-21T01:21:57.687Z,1.90
2022-09-21T01:22:57.669Z,2.10
2022-09-21T01:23:57.654Z,1.90
2022-09-21T01:24:57.639Z,1.80
2022-09-21T01:25:57.781Z,1.80
2022-09-21T01:26:57.622Z,1.60
2022-09-21T01:27:57.625Z,1.70
2022-09-21T01:28:57.604Z,1.80
2022-09-21T01:29:57.596Z,1.40
2022-09-21T01:30:57.594Z,1.40
2022-09-21T01:31:57.574Z,2.00
2022-09-21T01:33:03.558Z,1.40
2022-09-21T01:33:57.557Z,1.70
2022-09-21T01:34:57.537Z,1.60
2022-09-21T01:35:57.551Z,2.00
2022-09-21T01:36:57.523Z,1.60
2022-09-21T01:37:57.517Z,1.80
2022-09-21T01:38:57.498Z,1.60
2022-09-21T01:39:57.497Z,1.80
2022-09-21T01:40:57.510Z,1.50
2022-09-21T01:41:57.476Z,1.70
2022-09-21T01:42:57.463Z,1.30
2022-09-21T01:43:57.466Z,1.60
2022-09-21T01:44:57.438Z,1.50
2022-09-21T01:45:57.571Z,1.70
2022-09-21T01:46:57.416Z,1.70
2022-09-21T01:47:57.421Z,1.30
2022-09-21T01:48:57.399Z,1.80
2022-09-21T01:49:57.394Z,1.50
2022-09-21T01:50:57.399Z,1.50
2022-09-21T01:51:57.384Z,1.60
2022-09-21T01:52:57.363Z,1.60
2022-09-21T01:53:57.362Z,1.70
2022-09-21T01:54:57.341Z,1.60
2022-09-21T01:55:57.354Z,1.20
2022-09-21T01:56:57.319Z,1.70
2022-09-21T01:57:57.313Z,1.30
2022-09-21T01:58:57.379Z,1.70
2022-09-21T01:59:57.307Z,1.50
2022-09-21T02:00:57.331Z,1.80
2022-09-21T02:01:57.338Z,1.70
2022-09-21T02:02:57.256Z,1.60
2022-09-21T02:03:57.259Z,1.40
2022-09-21T02:04:57.244Z,1.50
2022-09-21T02:05:57.261Z,1.70
2022-09-21T02:06:57.220Z,1.60
2022-09-21T02:07:57.223Z,1.40
2022-09-21T02:08:57.209Z,1.60
2022-09-21T02:09:57.194Z,2.00
2022-09-21T02:10:57.196Z,1.60
2022-09-21T02:11:57.173Z,1.60
2022-09-21T02:12:57.183Z,1.70
2022-09-21T02:13:57.251Z,1.50
2022-09-21T02:14:57.159Z,1.80
2022-09-21T02:15:57.178Z,1.60
2022-09-21T02:16:57.126Z,1.70
2022-09-21T02:17:57.124Z,1.60
2022-09-21T02:18:57.098Z,1.70
2022-09-21T02:19:57.100Z,1.80
2022-09-21T02:20:57.094Z,1.80
2022-09-21T02:21:57.077Z,1.60
2022-09-21T02:22:57.068Z,1.30
2022-09-21T02:23:57.055Z,1.60
2022-09-21T02:24:57.046Z,2.00
2022-09-21T02:25:57.056Z,1.80
2022-09-21T02:26:57.031Z,1.70
2022-09-21T02:27:57.017Z,1.90
2022-09-21T02:28:57.051Z,1.70
2022-09-21T02:29:56.999Z,1.90
2022-09-21T02:30:57.074Z,1.70
2022-09-21T02:31:56.978Z,1.60
2022-09-21T02:32:56.970Z,2.40
2022-09-21T02:33:56.974Z,1.60
2022-09-21T02:34:56.953Z,1.70
2022-09-21T02:35:56.946Z,1.60
2022-09-21T02:36:57.021Z,2.00
2022-09-21T02:37:56.921Z,2.00
2022-09-21T02:38:56.918Z,1.50
2022-09-21T02:39:56.903Z,2.00
2022-09-21T02:40:56.889Z,1.60
2022-09-21T02:41:56.889Z,1.60
2022-09-21T02:42:56.873Z,2.00
2022-09-21T02:43:56.948Z,1.50
2022-09-21T02:44:56.849Z,1.60
2022-09-21T02:45:56.858Z,2.00
2022-09-21T02:46:56.838Z,1.80
2022-09-21T02:47:56.812Z,1.50
2022-09-21T02:48:56.809Z,1.60
2022-09-21T02:49:56.797Z,1.80
2022-09-21T02:50:56.812Z,2.00
2022-09-21T02:51:56.777Z,2.20
2022-09-21T02:52:56.770Z,1.80
2022-09-21T02:53:56.750Z,1.80
2022-09-21T02:54:56.746Z,1.70
2022-09-21T02:55:56.767Z,1.70
2022-09-21T02:56:56.740Z,1.90
2022-09-21T02:57:56.714Z,2.00
2022-09-21T02:58:56.740Z,2.10
2022-09-21T02:59:56.694Z,2.00
2022-09-21T03:00:56.785Z,1.70
2022-09-21T03:01:56.715Z,1.90
2022-09-21T03:02:56.678Z,1.90
2022-09-21T03:03:56.657Z,1.70
2022-09-21T03:04:56.657Z,2.20
2022-09-21T03:05:56.641Z,2.00
2022-09-21T03:06:56.646Z,1.80
2022-09-21T03:07:56.623Z,1.90
2022-09-21T03:08:56.614Z,1.80
2022-09-21T03:09:56.598Z,1.70
2022-09-21T03:10:56.593Z,2.40
2022-09-21T03:11:56.587Z,2.10
2022-09-21T03:12:56.572Z,1.80
2022-09-21T03:13:56.563Z,1.80
2022-09-21T03:14:56.553Z,2.10
2022-09-21T03:15:56.563Z,1.70
2022-09-21T03:16:56.548Z,1.80
2022-09-21T03:17:56.532Z,1.80
2022-09-21T03:18:56.513Z,2.20
2022-09-21T03:19:56.503Z,2.10
2022-09-21T03:20:56.502Z,2.10
2022-09-21T03:21:56.494Z,2.30
2022-09-21T03:22:56.471Z,2.20
2022-09-21T03:23:56.455Z,1.80
2022-09-21T03:24:56.451Z,2.40
2022-09-21T03:25:56.442Z,2.60
2022-09-21T03:26:56.456Z,1.80
2022-09-21T03:27:56.417Z,2.50
2022-09-21T03:28:56.501Z,2.00
2022-09-21T03:30:01.341Z,2.30
2022-09-21T03:30:56.462Z,2.30
2022-09-21T03:31:56.389Z,2.20
2022-09-21T03:32:56.388Z,2.50
2022-09-21T03:33:56.359Z,2.60
2022-09-21T03:34:56.357Z,2.20
2022-09-21T03:35:56.336Z,2.00
2022-09-21T03:36:56.353Z,2.30
2022-09-21T03:37:56.327Z,2.20
2022-09-21T03:38:56.329Z,2.60
2022-09-21T03:39:56.298Z,2.10
2022-09-21T03:40:56.308Z,2.40
2022-09-21T03:41:56.292Z,2.00
2022-09-21T03:42:56.274Z,2.40
2022-09-21T03:43:56.266Z,2.50
2022-09-21T03:44:56.257Z,2.10
2022-09-21T03:45:56.272Z,2.80
2022-09-21T03:46:56.254Z,2.60
2022-09-21T03:47:56.218Z,2.50
2022-09-21T03:48:56.237Z,2.90
2022-09-21T03:49:56.201Z,3.20
2022-09-21T03:50:56.219Z,2.70
2022-09-21T03:51:56.187Z,2.00
2022-09-21T03:52:56.185Z,2.10
2022-09-21T03:53:56.161Z,2.20
2022-09-21T03:54:56.163Z,2.70
2022-09-21T03:55:56.148Z,2.60
2022-09-21T03:56:56.158Z,2.60
2022-09-21T03:57:56.120Z,2.30
2022-09-21T03:58:56.200Z,3.10
2022-09-21T03:59:56.109Z,1.80
2022-09-21T04:00:56.093Z,2.40
2022-09-21T04:01:56.099Z,2.20
2022-09-21T04:02:56.163Z,2.60
2022-09-21T04:03:56.066Z,2.10
2022-09-21T04:04:56.057Z,2.50
2022-09-21T04:05:56.044Z,2.10
2022-09-21T04:06:56.059Z,2.30
2022-09-21T04:07:56.026Z,2.00
2022-09-21T04:08:56.221Z,1.90
2022-09-21T04:09:56.005Z,2.10
2022-09-21T04:10:56.078Z,2.70
2022-09-21T04:11:55.999Z,2.40
2022-09-21T04:12:56.049Z,2.30
2022-09-21T04:13:56.068Z,3.20
2022-09-21T04:14:56.051Z,1.90
2022-09-21T04:15:56.005Z,2.10
2022-09-21T04:16:55.962Z,2.60
2022-09-21T04:17:55.931Z,2.20
2022-09-21T04:18:55.928Z,2.30
2022-09-21T04:19:55.907Z,2.50
2022-09-21T04:20:55.911Z,2.30
2022-09-21T04:21:55.905Z,2.10
2022-09-21T04:22:55.879Z,2.60
2022-09-21T04:23:55.874Z,2.90
2022-09-21T04:24:55.859Z,1.90
2022-09-21T04:25:55.840Z,2.20
2022-09-21T04:26:55.852Z,3.40
2022-09-21T04:27:55.818Z,2.10
2022-09-21T04:28:55.820Z,2.20
2022-09-21T04:29:55.852Z,2.40
2022-09-21T04:30:55.978Z,2.60
2022-09-21T04:31:55.811Z,2.20
2022-09-21T04:32:55.785Z,2.60
2022-09-21T04:33:55.817Z,2.90
2022-09-21T04:34:55.764Z,2.50
2022-09-21T04:35:55.740Z,2.10
2022-09-21T04:36:55.770Z,3.00
2022-09-21T04:37:55.720Z,3.00
2022-09-21T04:38:55.727Z,2.20
2022-09-21T04:39:55.701Z,2.40
2022-09-21T04:40:55.693Z,2.40
2022-09-21T04:41:55.689Z,2.30
2022-09-21T04:42:55.681Z,2.70
2022-09-21T04:43:55.671Z,3.10
2022-09-21T04:44:55.652Z,2.60
2022-09-21T04:45:55.691Z,2.50
2022-09-21T04:46:55.647Z,2.70
2022-09-21T04:47:55.621Z,2.60
2022-09-21T04:48:55.638Z,3.40
2022-09-21T04:49:55.616Z,2.40
2022-09-21T04:50:55.592Z,2.80
2022-09-21T04:51:55.603Z,3.20
2022-09-21T04:52:55.580Z,2.30
2022-09-21T04:53:55.559Z,2.00
2022-09-21T04:54:55.556Z,2.20
2022-09-21T04:55:55.550Z,2.30
2022-09-21T04:56:55.598Z,2.70
2022-09-21T04:57:55.537Z,2.80
2022-09-21T04:58:55.591Z,2.60
2022-09-21T04:59:55.505Z,2.80
2022-09-21T05:00:55.524Z,2.60
2022-09-21T05:01:55.508Z,2.50
2022-09-21T05:02:55.508Z,3.30
2022-09-21T05:03:55.631Z,2.70
2022-09-21T05:04:55.482Z,2.70
2022-09-21T05:05:55.452Z,2.40
2022-09-21T05:06:55.450Z,2.90
2022-09-21T05:07:55.426Z,3.20
2022-09-21T05:08:55.422Z,2.30
2022-09-21T05:09:55.404Z,3.00
2022-09-21T05:10:55.409Z,2.60
2022-09-21T05:11:55.395Z,3.10
2022-09-21T05:12:55.379Z,3.30
2022-09-21T05:13:55.364Z,3.10
2022-09-21T05:14:55.364Z,2.90
2022-09-21T05:15:55.376Z,3.20
2022-09-21T05:16:55.371Z,2.90
2022-09-21T05:17:55.327Z,2.80
2022-09-21T05:18:55.322Z,3.20
2022-09-21T05:19:55.303Z,2.10
2022-09-21T05:20:55.309Z,2.60
2022-09-21T05:21:55.286Z,2.60
2022-09-21T05:22:55.296Z,2.90
2022-09-21T05:23:55.267Z,3.10
2022-09-21T05:24:55.260Z,2.60
2022-09-21T05:25:55.296Z,3.00
2022-09-21T05:26:55.299Z,2.80
2022-09-21T05:27:55.247Z,2.80
2022-09-21T05:28:55.264Z,3.30
2022-09-21T05:29:55.215Z,3.20
2022-09-21T05:31:14.017Z,2.60
2022-09-21T05:31:55.230Z,2.80
2022-09-21T05:32:55.211Z,3.30
2022-09-21T05:33:55.180Z,2.50
2022-09-21T05:34:55.180Z,2.30
2022-09-21T05:35:55.181Z,3.00
2022-09-21T05:36:55.140Z,2.60
2022-09-21T05:37:55.149Z,2.80
2022-09-21T05:38:55.143Z,3.20
2022-09-21T05:39:55.110Z,2.20
2022-09-21T05:40:55.112Z,2.50
2022-09-21T05:41:55.107Z,2.60
2022-09-21T05:42:55.099Z,2.80
2022-09-21T05:43:55.174Z,3.50
2022-09-21T05:44:55.071Z,3.10
2022-09-21T05:45:55.082Z,2.30
2022-09-21T05:46:56.355Z,2.60
2022-09-21T05:47:55.043Z,2.40
2022-09-21T05:48:55.028Z,1.90
2022-09-21T05:49:55.005Z,2.40
2022-09-21T05:50:55.021Z,2.70
2022-09-21T05:51:55.034Z,3.10
2022-09-21T05:52:54.981Z,2.40
2022-09-21T05:53:54.977Z,1.80
2022-09-21T05:54:54.964Z,1.80
2022-09-21T05:55:54.955Z,2.60
2022-09-21T05:56:54.957Z,3.20
2022-09-21T05:57:54.928Z,2.60
2022-09-21T05:58:55.032Z,2.60
2022-09-21T05:59:54.913Z,2.40
2022-09-21T06:00:55.034Z,2.50
2022-09-21T06:01:54.908Z,2.70
2022-09-21T06:02:54.883Z,2.70
2022-09-21T06:03:54.877Z,2.80
2022-09-21T06:04:54.872Z,3.40
2022-09-21T06:05:54.852Z,2.90
2022-09-21T06:06:54.859Z,3.60
2022-09-21T06:07:54.836Z,2.70
2022-09-21T06:08:54.829Z,3.00
2022-09-21T06:09:54.837Z,3.50
2022-09-21T06:10:54.803Z,3.00
2022-09-21T06:11:54.804Z,3.00
2022-09-21T06:12:54.814Z,4.00
2022-09-21T06:13:54.811Z,3.70
2022-09-21T06:14:54.774Z,3.70
2022-09-21T06:15:54.770Z,3.50
2022-09-21T06:16:54.806Z,3.90
2022-09-21T06:17:54.748Z,5.00
2022-09-21T06:18:54.735Z,5.60
2022-09-21T06:19:54.718Z,4.70
2022-09-21T06:20:54.704Z,4.40
2022-09-21T06:21:54.712Z,3.70
2022-09-21T06:22:54.684Z,3.30
2022-09-21T06:23:54.669Z,3.90
2022-09-21T06:24:54.679Z,3.00
2022-09-21T06:25:58.233Z,2.70
2022-09-21T06:26:54.679Z,2.50
2022-09-21T06:27:54.627Z,2.50
2022-09-21T06:28:54.696Z,2.80
2022-09-21T06:29:54.609Z,2.00
2022-09-21T06:30:54.670Z,2.50
2022-09-21T06:31:54.598Z,2.70
2022-09-21T06:32:54.584Z,2.30
2022-09-21T06:33:54.572Z,1.80
2022-09-21T06:34:54.564Z,2.30
2022-09-21T06:35:54.552Z,2.40
2022-09-21T06:36:54.559Z,2.40
2022-09-21T06:37:54.543Z,2.30
2022-09-21T06:38:54.522Z,2.30
2022-09-21T06:39:54.521Z,2.30
2022-09-21T06:40:54.518Z,2.60
2022-09-21T06:41:54.490Z,2.50
2022-09-21T06:42:54.500Z,2.60
2022-09-21T06:43:54.518Z,2.80
2022-09-21T06:44:54.462Z,2.60
2022-09-21T06:45:54.577Z,2.40
2022-09-21T06:46:54.459Z,2.40
2022-09-21T06:47:54.432Z,2.40
2022-09-21T06:48:54.447Z,2.50
2022-09-21T06:49:54.408Z,2.90
2022-09-21T06:50:54.399Z,2.60
2022-09-21T06:51:54.410Z,2.40
2022-09-21T06:52:54.380Z,2.50
2022-09-21T06:53:54.402Z,2.70
2022-09-21T06:54:54.358Z,3.00
2022-09-21T06:55:54.363Z,2.60
2022-09-21T06:56:58.064Z,2.70
2022-09-21T06:57:54.356Z,2.50
2022-09-21T06:58:54.379Z,2.90
2022-09-21T06:59:54.318Z,3.00
2022-09-21T07:00:54.392Z,2.50
2022-09-21T07:01:54.407Z,2.30
2022-09-21T07:02:54.286Z,2.70
2022-09-21T07:03:54.286Z,2.40
2022-09-21T07:04:54.271Z,2.90
2022-09-21T07:05:54.260Z,2.50
2022-09-21T07:06:54.282Z,2.60
2022-09-21T07:07:54.248Z,2.60
2022-09-21T07:10:14.528Z,2.40
2022-09-21T07:10:54.208Z,2.40
2022-09-21T07:11:54.223Z,2.60
2022-09-21T07:12:54.179Z,2.80
2022-09-21T07:13:54.193Z,2.70
2022-09-21T07:14:54.167Z,2.80
2022-09-21T07:15:54.165Z,2.60
2022-09-21T07:16:54.159Z,2.50
2022-09-21T07:18:05.432Z,2.60
2022-09-21T07:18:54.153Z,2.40
2022-09-21T07:19:54.118Z,2.60
2022-09-21T07:20:54.105Z,2.50
2022-09-21T07:21:54.111Z,2.70
2022-09-21T07:22:54.081Z,2.90
2022-09-21T07:23:54.082Z,2.70
2022-09-21T07:24:54.078Z,2.30
2022-09-21T07:25:54.065Z,2.40
2022-09-21T07:26:54.062Z,2.90
2022-09-21T07:27:54.047Z,2.90
2022-09-21T07:28:54.028Z,2.30
2022-09-21T07:29:54.028Z,2.10
2022-09-21T07:30:54.010Z,2.10
2022-09-21T07:31:54.171Z,2.30
2022-09-21T07:33:00.001Z,2.70
2022-09-21T07:33:54.588Z,2.80
2022-09-21T07:34:53.959Z,2.60
2022-09-21T07:35:57.028Z,2.20
2022-09-21T07:36:53.953Z,2.50
2022-09-21T07:37:53.936Z,2.20
2022-09-21T07:38:53.922Z,2.30
2022-09-21T07:39:53.918Z,2.70
2022-09-21T07:40:53.901Z,2.20
2022-09-21T07:41:53.926Z,2.30
2022-09-21T07:42:53.889Z,2.20
2022-09-21T07:43:53.878Z,2.10
2022-09-21T07:45:03.334Z,2.50
2022-09-21T07:45:53.906Z,2.80
2022-09-21T07:46:53.854Z,2.50
2022-09-21T07:47:53.839Z,2.40
2022-09-21T07:48:53.829Z,2.70
2022-09-21T07:49:53.815Z,2.40
2022-09-21T07:50:53.823Z,2.50
2022-09-21T07:51:53.809Z,2.40
2022-09-21T07:52:53.781Z,2.90
2022-09-21T07:53:53.785Z,3.00
2022-09-21T07:54:53.781Z,2.90
2022-09-21T07:55:53.788Z,2.70
2022-09-21T07:56:53.770Z,3.50
2022-09-21T07:57:53.746Z,3.70
2022-09-21T07:58:53.731Z,3.60
2022-09-21T07:59:53.715Z,3.90
2022-09-21T08:00:53.756Z,3.90
2022-09-21T08:01:53.765Z,3.30
2022-09-21T08:02:53.688Z,3.60
2022-09-21T08:03:53.680Z,3.50
2022-09-21T08:04:53.665Z,3.20
2022-09-21T08:05:53.656Z,3.40
2022-09-21T08:06:53.659Z,3.70
2022-09-21T08:07:53.646Z,3.00
2022-09-21T08:08:57.495Z,4.40
2022-09-21T08:09:53.615Z,3.80
2022-09-21T08:10:53.601Z,2.70
2022-09-21T08:11:53.613Z,3.70
2022-09-21T08:12:53.609Z,4.40
2022-09-21T08:13:53.579Z,2.60
2022-09-21T08:14:53.561Z,3.40
2022-09-21T08:15:53.555Z,2.40
2022-09-21T08:16:53.779Z,2.80
2022-09-21T08:17:53.536Z,2.60
2022-09-21T08:18:53.523Z,2.60
2022-09-21T08:19:53.529Z,2.50
2022-09-21T08:20:53.501Z,2.80
2022-09-21T08:21:57.257Z,2.30
2022-09-21T08:22:53.489Z,3.00
2022-09-21T08:23:53.484Z,2.50
2022-09-21T08:24:53.601Z,2.70
2022-09-21T08:25:53.464Z,2.00
2022-09-21T08:26:53.461Z,2.40
2022-09-21T08:27:53.440Z,3.60
2022-09-21T08:28:53.462Z,3.00
2022-09-21T08:29:53.419Z,2.60
2022-09-21T08:30:53.407Z,1.80
2022-09-21T08:31:53.521Z,1.90
2022-09-21T08:32:53.388Z,2.20
2022-09-21T08:33:53.375Z,2.00
2022-09-21T08:34:53.361Z,1.70
2022-09-21T08:35:53.369Z,1.70
2022-09-21T08:36:55.805Z,1.70
2022-09-21T08:37:53.340Z,1.70
2022-09-21T08:38:53.327Z,1.70
2022-09-21T08:39:53.325Z,2.10
2022-09-21T08:40:53.311Z,1.60
2022-09-21T08:41:53.322Z,1.70
2022-09-21T08:42:53.283Z,1.50
2022-09-21T08:43:53.280Z,1.80
2022-09-21T08:44:53.267Z,2.10
2022-09-21T08:45:53.260Z,1.80
2022-09-21T08:46:53.368Z,1.80
2022-09-21T08:47:53.240Z,2.10
2022-09-21T08:48:53.228Z,2.80
2022-09-21T08:49:53.225Z,2.20
2022-09-21T08:50:53.210Z,2.00
2022-09-21T08:51:53.202Z,1.50
2022-09-21T08:52:53.202Z,1.90
2022-09-21T08:53:53.179Z,1.20
2022-09-21T08:54:53.169Z,1.40
2022-09-21T08:55:53.173Z,1.30
2022-09-21T08:57:05.084Z,1.20
2022-09-21T08:57:53.170Z,1.20
2022-09-21T08:58:53.130Z,1.20
2022-09-21T08:59:53.121Z,1.30
2022-09-21T09:00:53.158Z,1.30
2022-09-21T09:01:53.150Z,1.10
2022-09-21T09:02:53.103Z,1.10
2022-09-21T09:03:53.082Z,1.30
2022-09-21T09:04:53.069Z,1.30
2022-09-21T09:05:53.066Z,1.20
2022-09-21T09:06:53.058Z,1.40
2022-09-21T09:07:53.064Z,1.40
2022-09-21T09:08:53.028Z,1.30
2022-09-21T09:09:53.020Z,1.20
2022-09-21T09:10:53.015Z,1.20
2022-09-21T09:11:53.005Z,0.80
2022-09-21T09:12:53.000Z,1.20
2022-09-21T09:13:52.993Z,1.50
2022-09-21T09:14:52.968Z,1.00
2022-09-21T09:15:52.980Z,1.00
2022-09-21T09:16:52.948Z,1.00
2022-09-21T09:17:52.980Z,0.80
2022-09-21T09:18:52.956Z,1.30
2022-09-21T09:19:52.930Z,0.80
2022-09-21T09:20:52.921Z,1.40
2022-09-21T09:21:52.900Z,1.10
2022-09-21T09:22:52.901Z,1.00
2022-09-21T09:23:52.894Z,1.40
2022-09-21T09:24:52.912Z,1.20
2022-09-21T09:25:52.867Z,1.30
2022-09-21T09:26:52.877Z,1.40
2022-09-21T09:27:52.859Z,1.10
2022-09-21T09:28:53.304Z,1.00
2022-09-21T09:29:52.826Z,0.80
2022-09-21T09:30:52.806Z,1.20
2022-09-21T09:31:52.888Z,0.90
2022-09-21T09:32:52.789Z,1.20
2022-09-21T09:33:52.802Z,1.40
2022-09-21T09:34:52.771Z,1.10
2022-09-21T09:35:52.773Z,0.80
2022-09-21T09:37:00.258Z,0.90
2022-09-21T09:37:52.750Z,1.10
2022-09-21T09:38:52.767Z,1.30
2022-09-21T09:39:52.741Z,1.20
2022-09-21T09:40:52.713Z,1.20
2022-09-21T09:41:52.701Z,1.20
2022-09-21T09:42:52.690Z,1.40
2022-09-21T09:43:52.698Z,1.20
2022-09-21T09:44:52.667Z,1.00
2022-09-21T09:45:52.684Z,1.40
2022-09-21T09:46:52.696Z,1.40
2022-09-21T09:47:52.650Z,1.20
2022-09-21T09:48:54.355Z,1.20
2022-09-21T09:49:52.621Z,1.50
2022-09-21T09:50:52.605Z,1.10
2022-09-21T09:51:52.626Z,1.50
2022-09-21T09:52:52.588Z,1.00
2022-09-21T09:53:52.621Z,1.40
2022-09-21T09:54:52.568Z,1.80
2022-09-21T09:55:52.647Z,1.70
2022-09-21T09:56:52.552Z,1.00
2022-09-21T09:57:52.594Z,1.10
2022-09-21T09:58:52.553Z,1.20
2022-09-21T09:59:54.589Z,0.80
2022-09-21T10:00:52.518Z,0.90
2022-09-21T10:01:52.591Z,1.70
2022-09-21T10:02:52.489Z,1.70
2022-09-21T10:03:52.552Z,1.40
2022-09-21T10:04:52.483Z,1.60
2022-09-21T10:05:52.468Z,1.10
2022-09-21T10:06:52.449Z,1.60
2022-09-21T10:07:52.443Z,1.60
2022-09-21T10:08:52.442Z,1.00
2022-09-21T10:09:52.425Z,1.30
2022-09-21T10:10:52.415Z,1.10
2022-09-21T10:11:52.405Z,1.60
2022-09-21T10:12:52.390Z,1.10
2022-09-21T10:13:52.401Z,1.10
2022-09-21T10:14:52.379Z,1.20
2022-09-21T10:15:52.452Z,1.40
2022-09-21T10:16:52.347Z,1.30
2022-09-21T10:17:52.347Z,1.60
2022-09-21T10:18:52.343Z,1.80
2022-09-21T10:19:52.325Z,1.60
2022-09-21T10:20:52.309Z,1.50
2022-09-21T10:21:52.367Z,1.00
2022-09-21T10:22:52.288Z,1.40
2022-09-21T10:23:52.302Z,1.20
2022-09-21T10:24:52.266Z,1.20
2022-09-21T10:25:52.288Z,1.30
2022-09-21T10:26:52.249Z,1.50
2022-09-21T10:27:52.248Z,1.20
2022-09-21T10:28:52.247Z,1.50
2022-09-21T10:29:52.227Z,1.20
2022-09-21T10:30:52.291Z,1.40
2022-09-21T10:31:52.205Z,1.30
2022-09-21T10:32:52.189Z,1.70
2022-09-21T10:33:52.207Z,1.50
2022-09-21T10:34:52.186Z,1.30
2022-09-21T10:35:52.167Z,1.30
2022-09-21T10:36:52.149Z,1.60
2022-09-21T10:37:52.144Z,1.40
2022-09-21T10:38:52.150Z,1.70
2022-09-21T10:39:52.122Z,1.40
2022-09-21T10:40:52.109Z,1.20
2022-09-21T10:41:52.104Z,1.40
2022-09-21T10:42:52.086Z,1.00
2022-09-21T10:43:52.094Z,1.10
2022-09-21T10:44:52.069Z,1.10
2022-09-21T10:45:52.114Z,1.30
2022-09-21T10:46:52.332Z,1.30
2022-09-21T10:47:52.042Z,1.60
2022-09-21T10:48:52.047Z,1.50
2022-09-21T10:49:52.035Z,1.40
2022-09-21T10:50:52.016Z,1.30
2022-09-21T10:51:52.007Z,1.10
2022-09-21T10:52:52.032Z,1.50
2022-09-21T10:53:53.918Z,1.40
2022-09-21T10:54:51.970Z,1.10
2022-09-21T10:56:04.974Z,1.50
2022-09-21T10:56:51.981Z,1.30
2022-09-21T10:57:51.942Z,1.20
2022-09-21T10:58:51.927Z,1.30
2022-09-21T10:59:51.935Z,1.40
2022-09-21T11:00:51.907Z,1.20
2022-09-21T11:01:51.979Z,1.50
2022-09-21T11:02:52.011Z,1.40
2022-09-21T11:03:51.882Z,1.40
2022-09-21T11:04:51.913Z,1.40
2022-09-21T11:05:51.862Z,1.60
2022-09-21T11:06:51.855Z,1.30
2022-09-21T11:07:51.842Z,1.50
2022-09-21T11:08:51.847Z,1.40
2022-09-21T11:09:51.829Z,1.20
2022-09-21T11:10:51.816Z,1.50
2022-09-21T11:11:51.799Z,1.50
2022-09-21T11:12:51.797Z,1.90
2022-09-21T11:13:51.778Z,1.40
2022-09-21T11:14:51.783Z,1.60
2022-09-21T11:15:51.912Z,1.30
2022-09-21T11:16:51.749Z,1.20
2022-09-21T11:17:51.744Z,1.20
2022-09-21T11:18:51.737Z,1.40
2022-09-21T11:19:51.729Z,1.30
2022-09-21T11:20:51.738Z,1.30
2022-09-21T11:21:51.696Z,1.10
2022-09-21T11:22:56.724Z,1.30
2022-09-21T11:23:51.685Z,1.40
2022-09-21T11:24:51.690Z,1.30
2022-09-21T11:25:51.659Z,1.50
2022-09-21T11:26:51.659Z,1.10
2022-09-21T11:27:51.635Z,1.50
2022-09-21T11:28:51.628Z,1.40
2022-09-21T11:29:51.626Z,1.10
2022-09-21T11:30:51.650Z,1.10
2022-09-21T11:31:51.606Z,1.50
2022-09-21T11:32:51.592Z,1.20
2022-09-21T11:33:51.578Z,1.50
2022-09-21T11:34:51.588Z,1.50
2022-09-21T11:35:51.634Z,1.20
2022-09-21T11:36:51.555Z,1.40
2022-09-21T11:37:51.537Z,1.40
2022-09-21T11:38:51.530Z,1.70
2022-09-21T11:39:51.534Z,1.50
2022-09-21T11:40:51.531Z,1.50
2022-09-21T11:41:51.495Z,1.60
2022-09-21T11:42:51.498Z,1.70
2022-09-21T11:43:51.476Z,1.60
2022-09-21T11:44:51.474Z,1.10
2022-09-21T11:45:51.528Z,1.70
2022-09-21T11:46:51.457Z,1.50
2022-09-21T11:47:51.442Z,1.80
2022-09-21T11:48:51.442Z,1.30
2022-09-21T11:49:58.994Z,1.30
2022-09-21T11:51:53.769Z,1.30
2022-09-21T11:52:51.391Z,1.80
2022-09-21T11:53:51.377Z,1.50
2022-09-21T11:54:51.381Z,1.80
2022-09-21T11:55:51.431Z,1.30
2022-09-21T11:56:51.360Z,1.30
2022-09-21T11:57:54.305Z,1.40
2022-09-21T11:58:53.034Z,1.50
2022-09-21T11:59:51.330Z,1.50
2022-09-21T12:00:51.317Z,1.70
2022-09-21T12:01:51.358Z,1.40
2022-09-21T12:03:51.286Z,1.30
2022-09-21T12:04:51.289Z,1.20
2022-09-21T12:05:51.358Z,1.40
2022-09-21T12:06:51.250Z,1.50
2022-09-21T12:07:51.234Z,1.30
2022-09-21T12:08:51.231Z,1.20
2022-09-21T12:09:51.241Z,1.60
2022-09-21T12:10:51.214Z,1.20
2022-09-21T12:11:51.199Z,1.60
2022-09-21T12:12:51.195Z,1.60
2022-09-21T12:13:51.240Z,1.30
2022-09-21T12:14:51.188Z,1.70
2022-09-21T12:15:51.232Z,1.40
2022-09-21T12:16:51.214Z,1.50
2022-09-21T12:17:51.134Z,1.50
2022-09-21T12:18:51.137Z,1.30
2022-09-21T12:19:51.133Z,1.80
2022-09-21T12:20:51.122Z,1.40
2022-09-21T12:21:51.101Z,1.70
2022-09-21T12:22:51.095Z,1.60
2022-09-21T12:23:51.080Z,1.70
2022-09-21T12:24:51.083Z,1.70
2022-09-21T12:25:51.204Z,1.30
2022-09-21T12:26:51.054Z,1.40
2022-09-21T12:27:51.040Z,1.50
2022-09-21T12:28:51.036Z,1.60
2022-09-21T12:29:51.030Z,1.50
2022-09-21T12:30:51.135Z,1.30
2022-09-21T12:31:51.003Z,1.40
2022-09-21T12:32:50.996Z,1.70
2022-09-21T12:33:50.977Z,1.80
2022-09-21T12:34:50.983Z,1.50
2022-09-21T12:36:50.949Z,1.40
2022-09-21T12:37:50.933Z,1.30
2022-09-21T12:38:50.928Z,1.50
2022-09-21T12:39:50.936Z,1.50
2022-09-21T12:40:50.914Z,1.30
2022-09-21T12:41:50.900Z,1.30
2022-09-21T12:42:50.902Z,1.50
2022-09-21T12:43:50.875Z,1.50
2022-09-21T12:44:50.885Z,1.50
2022-09-21T12:45:50.936Z,1.40
2022-09-21T12:46:53.265Z,1.60
2022-09-21T12:47:50.836Z,1.60
2022-09-21T12:48:50.830Z,1.40
2022-09-21T12:49:50.831Z,1.90
2022-09-21T12:50:50.814Z,1.40
2022-09-21T12:51:50.797Z,1.60
2022-09-21T12:52:50.792Z,1.50
2022-09-21T12:53:51.380Z,1.50
2022-09-21T12:54:50.787Z,1.10
2022-09-21T12:55:50.758Z,1.30
2022-09-21T12:56:50.755Z,1.40
2022-09-21T12:58:14.090Z,1.50
2022-09-21T12:58:50.758Z,1.20
2022-09-21T12:59:50.741Z,1.60
2022-09-21T13:00:50.736Z,1.50
2022-09-21T13:01:56.280Z,1.60
2022-09-21T13:02:50.712Z,1.00
2022-09-21T13:03:50.678Z,1.50
2022-09-21T13:04:50.687Z,1.40
2022-09-21T13:05:50.664Z,1.30
2022-09-21T13:06:50.663Z,1.30
2022-09-21T13:07:50.646Z,1.80
2022-09-21T13:08:50.685Z,1.60
2022-09-21T13:09:50.638Z,1.30
2022-09-21T13:10:54.935Z,1.50
2022-09-21T13:11:50.605Z,1.50
2022-09-21T13:12:50.592Z,1.40
2022-09-21T13:13:50.579Z,1.50
2022-09-21T13:14:50.605Z,1.30
2022-09-21T13:15:50.572Z,1.40
2022-09-21T13:16:50.619Z,1.30
2022-09-21T13:17:50.545Z,1.40
2022-09-21T13:18:50.539Z,1.30
2022-09-21T13:19:50.530Z,1.40
2022-09-21T13:20:50.517Z,1.40
2022-09-21T13:21:50.502Z,1.20
2022-09-21T13:22:50.500Z,1.50